Terminal Aerodrome Forecast
Issued by NWS

Home | Current Version | Previous Version | Text Only | Print | Product List | Glossary On
Versions: 1 2 3 4 5 6 7 8 9 10 11 12 13 14 15 16 17 18 19 20 21 22 23 24 25 26 27 28 29
274
FTUS41 KCAR 130150 AAF
TAFFVE
TAF AMD
KFVE 130150Z 1302/1324 07010G17KT 1SM -SN BR OVC012
     FM130700 09011G19KT 2SM -SNPL BR OVC007
     FM130900 08013KT 2SM -FZRASN BR OVC004
     FM131300 35010KT 1SM -FZRASN BR OVC002
     FM131600 30010KT 2SM -SHSN OVC006
     FM132200 25011KT 4SM -SHSN OVC015=

USA.gov is the U.S. government's official web portal to all federal, state and local government web resources and services.